createdAt,value
2023-03-24T00:02:00.152Z,72.77
2023-03-24T00:06:00.164Z,87.72
2023-03-24T00:10:00.217Z,86.77
2023-03-24T00:14:00.216Z,99.94
2023-03-24T00:18:00.292Z,89.09
2023-03-24T00:22:00.289Z,65.54
2023-03-24T00:26:00.303Z,82.89
2023-03-24T00:30:00.402Z,73.79
2023-03-24T00:34:00.428Z,74.06
2023-03-24T00:38:00.495Z,87.73
2023-03-24T00:42:00.560Z,64.28
2023-03-24T00:46:00.614Z,75.82
2023-03-24T00:50:00.674Z,69.50
2023-03-24T00:54:00.976Z,73.64
2023-03-24T00:58:00.786Z,70.94
2023-03-24T01:02:00.830Z,73.82
2023-03-24T01:06:02.390Z,56.34
2023-03-24T01:10:00.930Z,67.82
2023-03-24T01:14:00.985Z,67.22
2023-03-24T01:18:01.075Z,68.99
2023-03-24T01:22:01.092Z,53.46
2023-03-24T01:26:01.147Z,68.68
2023-03-24T01:30:01.200Z,71.04
2023-03-24T01:34:01.270Z,62.40
2023-03-24T01:38:01.308Z,61.95
2023-03-24T01:42:01.385Z,76.34
2023-03-24T01:46:01.506Z,70.80
2023-03-24T01:50:01.471Z,71.12
2023-03-24T01:54:01.545Z,74.37
2023-03-24T01:58:01.589Z,73.03
2023-03-24T02:02:01.622Z,71.48
2023-03-24T02:06:01.656Z,66.59
2023-03-24T02:10:01.794Z,73.66
2023-03-24T02:14:01.798Z,87.45
2023-03-24T02:18:01.833Z,76.79
2023-03-24T02:22:01.864Z,79.63
2023-03-24T02:26:01.876Z,80.08
2023-03-24T02:30:01.920Z,91.79
2023-03-24T02:34:01.999Z,95.40
2023-03-24T02:38:02.044Z,94.28
2023-03-24T02:42:02.061Z,89.02
2023-03-24T02:46:02.124Z,85.53
2023-03-24T02:50:02.164Z,91.74
2023-03-24T02:54:02.141Z,74.50
2023-03-24T02:58:02.198Z,82.84
2023-03-24T03:02:02.240Z,102.34
2023-03-24T03:06:02.317Z,104.22
2023-03-24T03:10:02.399Z,100.37
2023-03-24T03:14:02.453Z,104.70
2023-03-24T03:18:02.614Z,105.65
2023-03-24T03:22:02.598Z,105.74
2023-03-24T03:26:02.661Z,109.74
2023-03-24T03:30:02.790Z,93.85
2023-03-24T03:34:02.826Z,69.30
2023-03-24T03:38:02.895Z,90.50
2023-03-24T03:42:02.975Z,81.49
2023-03-24T03:46:03.113Z,72.62
2023-03-24T03:50:03.110Z,73.47
2023-03-24T03:54:03.178Z,96.16
2023-03-24T03:58:03.218Z,80.72
2023-03-24T04:02:03.318Z,85.11
2023-03-24T04:06:03.319Z,87.79
2023-03-24T04:10:03.383Z,86.78
2023-03-24T04:14:03.433Z,88.00
2023-03-24T04:18:03.528Z,85.64
2023-03-24T04:22:03.486Z,89.13
2023-03-24T04:26:03.565Z,86.83
2023-03-24T04:30:03.570Z,105.50
2023-03-24T04:34:03.805Z,95.59
2023-03-24T04:38:03.677Z,94.50
2023-03-24T04:42:03.745Z,104.23
2023-03-24T04:46:03.928Z,108.02
2023-03-24T04:50:03.867Z,93.73
2023-03-24T04:54:03.912Z,96.31
2023-03-24T04:58:03.987Z,113.13
2023-03-24T05:02:04.063Z,118.37
2023-03-24T05:06:04.091Z,111.49
2023-03-24T05:10:04.140Z,118.06
2023-03-24T05:14:04.349Z,117.41
2023-03-24T05:18:04.320Z,109.41
2023-03-24T05:22:04.370Z,112.33
2023-03-24T05:26:04.387Z,110.64
2023-03-24T05:30:04.436Z,110.95
2023-03-24T05:34:04.480Z,122.30
2023-03-24T05:38:04.552Z,101.99
2023-03-24T05:42:04.616Z,85.17
2023-03-24T05:46:04.704Z,83.95
2023-03-24T05:50:04.730Z,98.01
2023-03-24T05:54:04.774Z,105.08
2023-03-24T05:58:04.833Z,128.92
2023-03-24T06:02:04.909Z,112.18
2023-03-24T06:06:04.907Z,122.67
2023-03-24T06:10:04.948Z,120.57
2023-03-24T06:14:05.011Z,120.64
2023-03-24T06:18:05.186Z,111.25
2023-03-24T06:22:05.102Z,111.08
2023-03-24T06:26:05.618Z,119.32
2023-03-24T06:30:05.605Z,115.74
2023-03-24T06:34:05.607Z,154.74
2023-03-24T06:38:05.137Z,168.12
2023-03-24T06:42:05.665Z,182.06
2023-03-24T06:46:05.642Z,211.54
2023-03-24T06:50:05.399Z,243.32
2023-03-24T06:54:05.351Z,243.84
2023-03-24T06:58:05.342Z,211.79
2023-03-24T07:02:05.346Z,193.38
2023-03-24T07:06:05.181Z,151.90
2023-03-24T07:10:05.170Z,134.09
2023-03-24T07:14:05.634Z,125.19
2023-03-24T07:18:05.200Z,147.68
2023-03-24T07:22:05.079Z,164.94
2023-03-24T07:26:05.048Z,184.65
2023-03-24T07:30:04.978Z,216.45
2023-03-24T07:34:05.124Z,212.71
2023-03-24T07:38:04.944Z,272.80
2023-03-24T07:42:05.129Z,232.71
2023-03-24T07:46:05.324Z,208.05
2023-03-24T07:50:04.943Z,184.74
2023-03-24T07:54:04.887Z,176.70
2023-03-24T07:58:04.880Z,173.63
2023-03-24T08:02:05.346Z,206.36
2023-03-24T08:06:04.799Z,211.44
2023-03-24T08:10:04.764Z,211.01
2023-03-24T08:14:05.656Z,208.77
2023-03-24T08:18:04.704Z,214.38
2023-03-24T08:22:04.685Z,207.92
2023-03-24T08:26:04.668Z,228.86
2023-03-24T08:30:05.233Z,248.33
2023-03-24T08:34:05.256Z,243.49
2023-03-24T08:38:07.153Z,244.96
2023-03-24T08:42:05.670Z,242.91
2023-03-24T08:46:05.384Z,230.56
2023-03-24T08:50:05.468Z,226.00
2023-03-24T08:54:05.703Z,220.06
2023-03-24T08:58:06.269Z,208.70
2023-03-24T09:02:05.846Z,209.48
2023-03-24T09:06:05.868Z,197.35
2023-03-24T09:10:06.164Z,194.79
2023-03-24T09:14:06.213Z,200.07
2023-03-24T09:18:06.190Z,195.41
2023-03-24T09:22:06.072Z,163.51
2023-03-24T09:26:06.667Z,175.41
2023-03-24T09:30:06.328Z,180.01
2023-03-24T09:34:06.615Z,153.91
2023-03-24T09:38:06.710Z,130.09
2023-03-24T09:42:07.226Z,207.11
2023-03-24T09:46:06.756Z,186.25
2023-03-24T09:50:06.698Z,186.88
2023-03-24T09:54:06.574Z,174.99
2023-03-24T09:58:06.539Z,190.35
2023-03-24T10:02:06.486Z,160.83
2023-03-24T10:06:06.483Z,123.05
2023-03-24T10:10:06.435Z,137.00
2023-03-24T10:14:06.411Z,110.48
2023-03-24T10:18:09.452Z,110.90
2023-03-24T10:22:06.309Z,134.94
2023-03-24T10:26:06.306Z,139.91
2023-03-24T10:30:06.241Z,124.44
2023-03-24T10:34:06.725Z,120.50
2023-03-24T10:38:06.178Z,132.62
2023-03-24T10:42:07.283Z,154.97
2023-03-24T10:46:06.249Z,171.30
2023-03-24T10:50:14.434Z,167.02
2023-03-24T10:54:07.045Z,168.58
2023-03-24T10:58:05.981Z,180.53
2023-03-24T11:02:05.990Z,129.77
2023-03-24T11:06:06.255Z,167.55
2023-03-24T11:10:06.235Z,136.47
2023-03-24T11:14:06.213Z,110.90
2023-03-24T11:18:05.867Z,111.78
2023-03-24T11:22:06.288Z,102.94
2023-03-24T11:26:06.239Z,149.32
2023-03-24T11:30:06.295Z,158.08
2023-03-24T11:34:05.715Z,142.05
2023-03-24T11:38:06.263Z,123.25
2023-03-24T11:42:05.764Z,123.02
2023-03-24T11:46:05.896Z,74.52
2023-03-24T11:50:05.865Z,80.79
2023-03-24T11:54:05.955Z,83.65
2023-03-24T11:58:06.059Z,32.37
2023-03-24T12:02:06.236Z,28.33
2023-03-24T12:06:06.665Z,0.00
2023-03-24T12:10:06.597Z,27.37
2023-03-24T12:14:06.759Z,222.67
2023-03-24T12:18:06.766Z,157.02
2023-03-24T12:22:06.672Z,159.46
2023-03-24T12:26:06.613Z,155.16
2023-03-24T12:30:06.600Z,160.47
2023-03-24T12:34:06.611Z,166.13
2023-03-24T12:38:06.532Z,172.71
2023-03-24T12:42:06.525Z,167.18
2023-03-24T12:46:06.484Z,146.52
2023-03-24T12:50:06.426Z,155.93
2023-03-24T12:54:06.408Z,142.62
2023-03-24T12:58:06.335Z,134.37
2023-03-24T13:02:06.324Z,132.57
2023-03-24T13:06:16.311Z,137.30
2023-03-24T13:10:07.246Z,134.85
2023-03-24T13:14:06.222Z,129.00
2023-03-24T13:18:08.945Z,131.25
2023-03-24T13:22:06.124Z,137.05
2023-03-24T13:26:06.099Z,121.76
2023-03-24T13:30:08.728Z,131.21
2023-03-24T13:34:06.061Z,131.55
2023-03-24T13:38:06.005Z,125.12
2023-03-24T13:42:05.972Z,136.90
2023-03-24T13:46:05.980Z,135.48
2023-03-24T13:50:05.920Z,141.52
2023-03-24T13:54:05.861Z,138.69
2023-03-24T13:58:05.834Z,150.44
2023-03-24T14:02:05.865Z,142.17
2023-03-24T14:06:08.636Z,132.88
2023-03-24T14:10:05.714Z,115.02
2023-03-24T14:14:05.689Z,106.90
2023-03-24T14:18:07.377Z,136.14
2023-03-24T14:22:05.606Z,130.94
2023-03-24T14:26:05.574Z,118.84
2023-03-24T14:30:05.519Z,129.65
2023-03-24T14:34:05.525Z,131.37
2023-03-24T14:38:05.474Z,96.25
2023-03-24T14:42:05.434Z,99.82
2023-03-24T14:46:05.461Z,113.59
2023-03-24T14:50:05.346Z,110.82
2023-03-24T14:54:05.360Z,123.98
2023-03-24T14:58:05.278Z,133.97
2023-03-24T15:02:05.306Z,135.52
2023-03-24T15:06:05.211Z,148.62
2023-03-24T15:10:05.171Z,143.22
2023-03-24T15:14:05.238Z,110.19
2023-03-24T15:18:05.478Z,135.66
2023-03-24T15:22:05.632Z,139.50
2023-03-24T15:26:05.840Z,128.81
2023-03-24T15:30:06.022Z,125.02
2023-03-24T15:34:06.238Z,112.10
2023-03-24T15:38:06.473Z,125.96
2023-03-24T15:42:06.411Z,107.45
2023-03-24T15:46:12.242Z,132.14
2023-03-24T15:50:07.405Z,103.39
2023-03-24T15:54:06.339Z,75.02
2023-03-24T15:58:06.454Z,74.90
2023-03-24T16:02:06.442Z,86.08
2023-03-24T16:06:06.378Z,80.91
2023-03-24T16:10:06.409Z,67.92
2023-03-24T16:14:06.312Z,93.43
2023-03-24T16:18:06.562Z,89.86
2023-03-24T16:22:06.245Z,103.97
2023-03-24T16:26:06.204Z,89.69
2023-03-24T16:30:06.187Z,100.23
2023-03-24T16:34:06.145Z,147.99
2023-03-24T16:38:06.287Z,146.63
2023-03-24T16:46:25.074Z,25.00
2023-03-24T16:50:24.989Z,40.90
2023-03-24T16:54:24.965Z,35.21
2023-03-24T16:58:24.910Z,44.24
2023-03-24T17:02:24.999Z,28.69
2023-03-24T17:06:24.836Z,33.80
2023-03-24T17:10:24.862Z,43.06
2023-03-24T17:14:24.812Z,24.41
2023-03-24T17:18:24.753Z,32.41
2023-03-24T17:22:24.706Z,32.96
2023-03-24T17:26:24.922Z,43.54
2023-03-24T17:30:25.133Z,49.12
2023-03-24T17:34:25.331Z,37.71
2023-03-24T17:38:25.535Z,44.03
2023-03-24T17:42:25.714Z,57.27
2023-03-24T17:46:25.942Z,63.41
2023-03-24T17:50:26.140Z,74.92
2023-03-24T17:54:26.363Z,80.69
2023-03-24T17:58:26.552Z,73.50
2023-03-24T18:02:26.803Z,63.82
2023-03-24T18:06:26.715Z,67.74
2023-03-24T18:10:26.699Z,68.84
2023-03-24T18:14:26.720Z,64.04
2023-03-24T18:18:26.604Z,71.87
2023-03-24T18:22:26.595Z,60.01
2023-03-24T18:26:26.550Z,66.84
2023-03-24T18:30:26.537Z,66.66
2023-03-24T18:34:26.498Z,65.20
2023-03-24T18:38:26.421Z,64.60
2023-03-24T18:42:26.583Z,58.21
2023-03-24T18:46:26.616Z,70.08
2023-03-24T18:50:26.510Z,60.40
2023-03-24T18:54:26.467Z,65.27
2023-03-24T18:58:26.420Z,70.76
2023-03-24T19:02:26.439Z,66.49
2023-03-24T19:06:26.391Z,66.18
2023-03-24T19:10:26.313Z,43.41
2023-03-24T19:14:26.309Z,44.71
2023-03-24T19:18:26.246Z,47.67
2023-03-24T19:22:26.209Z,45.10
2023-03-24T19:26:26.274Z,43.50
2023-03-24T19:30:26.199Z,57.68
2023-03-24T19:34:26.191Z,50.14
2023-03-24T19:38:26.137Z,42.31
2023-03-24T19:42:26.089Z,37.63
2023-03-24T19:46:26.084Z,47.72
2023-03-24T19:50:26.016Z,31.12
2023-03-24T19:54:26.008Z,37.82
2023-03-24T19:58:26.074Z,49.10
2023-03-24T20:02:26.012Z,43.43
2023-03-24T20:06:26.010Z,42.81
2023-03-24T20:10:26.232Z,50.12
2023-03-24T20:14:26.295Z,41.53
2023-03-24T20:18:26.178Z,38.98
2023-03-24T20:22:26.127Z,45.91
2023-03-24T20:26:26.079Z,34.74
2023-03-24T20:30:26.047Z,43.11
2023-03-24T20:34:26.007Z,25.00
2023-03-24T20:38:25.981Z,30.72
2023-03-24T20:42:25.942Z,41.08
2023-03-24T20:46:25.966Z,37.08
2023-03-24T20:50:25.912Z,37.95
2023-03-24T20:54:25.847Z,32.09
2023-03-24T20:58:25.833Z,47.52
2023-03-24T21:02:25.868Z,48.15
2023-03-24T21:06:25.728Z,32.57
2023-03-24T21:10:25.692Z,40.57
2023-03-24T21:14:25.666Z,44.68
2023-03-24T21:18:25.643Z,40.41
2023-03-24T21:22:25.597Z,40.19
2023-03-24T21:26:25.573Z,45.00
2023-03-24T21:30:25.784Z,39.89
2023-03-24T21:34:25.764Z,47.47
2023-03-24T21:38:25.706Z,37.46
2023-03-24T21:42:25.666Z,55.47
2023-03-24T21:46:27.711Z,41.33
2023-03-24T21:50:25.863Z,50.72
2023-03-24T21:54:25.818Z,56.44
2023-03-24T21:58:25.779Z,63.03
2023-03-24T22:02:25.768Z,65.43
2023-03-24T22:06:25.703Z,56.87
2023-03-24T22:10:25.673Z,45.74
2023-03-24T22:14:25.661Z,63.24
2023-03-24T22:18:25.602Z,60.11
2023-03-24T22:22:25.558Z,59.11
2023-03-24T22:26:25.530Z,51.53
2023-03-24T22:30:25.515Z,66.30
2023-03-24T22:34:25.453Z,70.26
2023-03-24T22:38:25.620Z,68.78
2023-03-24T22:42:25.587Z,59.50
2023-03-24T22:46:25.610Z,56.15
2023-03-24T22:50:25.515Z,51.54
2023-03-24T22:54:25.515Z,55.30
2023-03-24T22:58:25.422Z,52.67
2023-03-24T23:02:25.462Z,49.61
2023-03-24T23:06:25.359Z,36.06
2023-03-24T23:10:25.311Z,38.11
2023-03-24T23:14:25.295Z,44.66
2023-03-24T23:18:25.266Z,38.60
2023-03-24T23:22:25.228Z,41.34
2023-03-24T23:26:26.719Z,37.26
2023-03-24T23:30:25.125Z,50.76
2023-03-24T23:34:25.095Z,47.93
2023-03-24T23:38:25.077Z,38.34
2023-03-24T23:42:25.020Z,74.83
2023-03-24T23:46:25.142Z,50.81
2023-03-24T23:50:25.044Z,39.07
2023-03-24T23:54:25.178Z,30.68
2023-03-24T23:58:25.258Z,59.62
